Hovedside
METAR-TAF:

METAR-TAF

Lufthavner :

Helsingborg, Sverige

Ängelholm-Helsingborg lufthavn

breddegrad: 56-17-46N, lengdegrad: 012-50-50E, høyde over havet: 21 m

Gjeldene værobservasjon

Denne rapporten ble laget for 23 minutter siden, klokken 07:20 UTC
Vind 12 kt fra Øst-sørøst
Temperatur 6°C
Luftfuktighet 81%
Trykk 1023 hPa
Sikt 10 km eller mer
Brutte skyer i en høyde av 3600 ft

METAR: ESTA 240720Z 12012KT 9999 BKN036 06/03 Q1023

Tid: 09:43 (07:43 UTC)

Varsel

Denne rapporten ble laget for 2 timer og 46 minutter siden, klokken 04:57 UTC
Varsel gyldig fra 24. klokken 06 UTC til 24. klokken 15 UTC
Vind 10 kt fra Øst-sørøst
Sikt 10 km eller mer
Brutte skyer i en høyde av 3000 ft
Blir
fra 24. klokken 13 UTC til 24. klokken 15 UTC
Sikt: 4000 m
Brutte skyer i en høyde av 1000 ft
regn, duskregn

TAF: ESTA 240457Z 2406/2415 11010KT 9999 BKN030 BECMG 2413/2415 4000 RADZ BKN010

Værobservasjoner og værvarsel for over 4000 flyplasser (METAR- og TAF-rapporter).

Tilgjengelige stasjoner er representert av de røde og gule prikkene på kartet.

Hold musepekeren over prikken for å se navnet på stasjonen.

Klikk så for å se værobservasjoner og -varsler.

For å forandre kartet kan du klikke på den grønne knappen med svart kryss for å zoome inn, på den grønne knappen med strek for å zoome ut, eller på de grønne pilene for å se tilstøtende kart.


METAR-TAF: